Time;durP1;ratioP1;P1;durP2;ratioP2;P2;SDS_P1;SDS_P2;PMS_P1;PMS_P2;Temp;Humidity;BMP_temperature;BMP_pressure;BME280_temperature;BME280_humidity;BME280_pressure;Samples;Min_cycle;Max_cycle;Signal;HPM_P1;HPM_P2
2023/06/26 00:04:53;;;;;;;15.90;14.43;;;;;;;;;;9916459;29;20089;-67
2023/06/26 00:09:50;;;;;;;14.90;13.60;;;;;;;;;;9949459;29;20633;-67
2023/06/26 00:14:46;;;;;;;16.20;14.80;;;;;;;;;;9946746;29;20472;-67
2023/06/26 00:19:42;;;;;;;15.20;14.00;;;;;;;;;;9953238;29;20051;-67
2023/06/26 00:24:39;;;;;;;15.60;14.30;;;;;;;;;;9953792;29;20082;-66
2023/06/26 00:29:35;;;;;;;15.40;14.00;;;;;;;;;;9954506;29;20040;-69
2023/06/26 00:34:31;;;;;;;15.05;13.75;;;;;;;;;;9954051;29;20052;-69
2023/06/26 00:39:28;;;;;;;14.50;13.30;;;;;;;;;;9952958;29;20041;-69
2023/06/26 00:44:24;;;;;;;14.73;13.50;;;;;;;;;;9943714;29;20516;-69
2023/06/26 00:49:20;;;;;;;15.50;14.30;;;;;;;;;;9950189;29;20057;-67
2023/06/26 00:54:20;;;;;;;15.90;14.60;;;;;;;;;;9949247;29;20076;-66
2023/06/26 00:59:16;;;;;;;15.10;13.80;;;;;;;;;;9950891;29;20052;-67
2023/06/26 01:09:25;;;;;;;15.07;13.70;;;;;;;;;;10472610;23;20043;-70
2023/06/26 01:14:21;;;;;;;14.75;13.45;;;;;;;;;;10054826;29;20490;-69
2023/06/26 01:19:24;;;;;;;16.20;14.70;;;;;;;;;;10035427;29;20501;-68
2023/06/26 01:24:27;;;;;;;15.57;14.27;;;;;;;;;;10018917;29;20055;-69
2023/06/26 01:29:23;;;;;;;;;;;;;;;;;;10034217;29;20070;-69
2023/06/26 01:34:20;;;;;;;14.32;13.13;;;;;;;;;;10030219;29;19966;-69
2023/06/26 01:39:18;;;;;;;15.27;13.82;;;;;;;;;;10025396;29;20056;-69
2023/06/26 01:44:14;;;;;;;15.75;14.27;;;;;;;;;;10014186;29;20094;-73
2023/06/26 01:49:24;;;;;;;16.27;14.85;;;;;;;;;;10028336;29;20128;-70
2023/06/26 01:54:23;;;;;;;15.52;14.23;;;;;;;;;;10022103;29;20456;-71
2023/06/26 01:59:20;;;;;;;15.20;13.90;;;;;;;;;;10025772;29;20505;-71
2023/06/26 02:04:16;;;;;;;16.00;14.60;;;;;;;;;;10015190;29;20047;-73
2023/06/26 02:09:13;;;;;;;16.73;15.20;;;;;;;;;;10025152;29;20409;-69
2023/06/26 02:14:10;;;;;;;15.23;13.98;;;;;;;;;;10026051;29;21523;-69
2023/06/26 02:19:07;;;;;;;15.75;14.45;;;;;;;;;;10024079;29;20051;-70
2023/06/26 02:24:03;;;;;;;15.60;14.25;;;;;;;;;;10016002;29;20561;-70
2023/06/26 02:28:59;;;;;;;16.05;14.75;;;;;;;;;;10030418;29;20055;-68
2023/06/26 02:33:56;;;;;;;16.92;15.40;;;;;;;;;;10044867;29;20072;-68
2023/06/26 02:38:52;;;;;;;15.75;14.48;;;;;;;;;;10026449;29;20475;-68
2023/06/26 02:43:48;;;;;;;15.27;13.98;;;;;;;;;;10017245;29;20040;-68
2023/06/26 02:48:44;;;;;;;17.40;16.00;;;;;;;;;;10025396;29;20048;-72
2023/06/26 02:53:41;;;;;;;16.75;15.35;;;;;;;;;;10028428;29;20044;-72
2023/06/26 02:58:37;;;;;;;15.27;13.98;;;;;;;;;;10032018;29;20123;-70
2023/06/26 03:03:40;;;;;;;15.68;14.18;;;;;;;;;;10024898;29;20502;-68
2023/06/26 03:08:38;;;;;;;15.63;14.23;;;;;;;;;;10029951;29;20107;-71
2023/06/26 03:13:35;;;;;;;14.57;13.43;;;;;;;;;;10025898;29;20477;-70
2023/06/26 03:18:31;;;;;;;15.00;13.70;;;;;;;;;;10034286;29;20058;-69
2023/06/26 03:23:27;;;;;;;14.43;13.07;;;;;;;;;;10006850;29;20070;-69
2023/06/26 03:28:24;;;;;;;16.35;14.95;;;;;;;;;;10027708;29;20103;-69
2023/06/26 03:33:29;;;;;;;14.90;13.68;;;;;;;;;;10025269;29;20052;-75
2023/06/26 03:38:27;;;;;;;15.07;13.75;;;;;;;;;;10007605;29;20043;-74
2023/06/26 03:43:23;;;;;;;14.07;12.98;;;;;;;;;;10012073;29;20066;-73
2023/06/26 03:48:21;;;;;;;14.50;13.40;;;;;;;;;;10005428;29;20044;-74
2023/06/26 03:53:18;;;;;;;14.02;12.82;;;;;;;;;;10010236;29;20059;-74
2023/06/26 03:58:16;;;;;;;14.13;12.93;;;;;;;;;;10026975;29;20039;-74
2023/06/26 04:03:14;;;;;;;14.38;13.20;;;;;;;;;;10015819;29;20048;-74
2023/06/26 04:08:12;;;;;;;14.90;13.70;;;;;;;;;;10014288;29;20553;-74
2023/06/26 04:13:09;;;;;;;15.98;14.57;;;;;;;;;;10014991;29;20058;-74
2023/06/26 04:18:07;;;;;;;15.63;14.32;;;;;;;;;;10009794;29;20063;-74
2023/06/26 04:23:04;;;;;;;14.32;12.93;;;;;;;;;;10001242;29;22069;-75
2023/06/26 04:28:01;;;;;;;14.50;13.27;;;;;;;;;;10011489;29;20051;-74
2023/06/26 04:33:00;;;;;;;14.32;13.13;;;;;;;;;;10017479;29;20066;-74
2023/06/26 04:37:58;;;;;;;15.75;14.43;;;;;;;;;;10011815;29;20047;-75
2023/06/26 04:42:55;;;;;;;15.95;14.45;;;;;;;;;;10007485;29;20040;-75
2023/06/26 04:47:51;;;;;;;16.75;15.25;;;;;;;;;;10024175;29;20050;-75
2023/06/26 04:52:47;;;;;;;16.63;15.23;;;;;;;;;;10025127;29;20051;-75
2023/06/26 04:57:44;;;;;;;15.82;14.48;;;;;;;;;;10029940;29;20051;-76
2023/06/26 05:02:40;;;;;;;15.50;14.20;;;;;;;;;;10023891;29;20231;-76
2023/06/26 05:07:37;;;;;;;17.55;16.08;;;;;;;;;;10025950;29;20074;-77
2023/06/26 05:12:34;;;;;;;16.52;15.10;;;;;;;;;;10021716;29;20052;-77
2023/06/26 05:17:30;;;;;;;17.10;15.50;;;;;;;;;;10025357;29;20059;-77
2023/06/26 05:22:27;;;;;;;16.30;14.98;;;;;;;;;;10021001;29;20647;-76
2023/06/26 05:27:23;;;;;;;15.90;14.70;;;;;;;;;;10030503;29;20043;-77
2023/06/26 05:32:20;;;;;;;16.52;14.95;;;;;;;;;;10015811;29;20421;-77
2023/06/26 05:37:22;;;;;;;16.15;14.85;;;;;;;;;;10030106;29;20100;-77
2023/06/26 05:42:19;;;;;;;15.52;13.93;;;;;;;;;;10029179;29;20106;-77
2023/06/26 05:47:15;;;;;;;16.25;14.75;;;;;;;;;;10022278;29;20052;-77
2023/06/26 05:52:12;;;;;;;14.85;13.55;;;;;;;;;;10014255;29;20079;-77
2023/06/26 05:57:09;;;;;;;16.17;14.70;;;;;;;;;;10027312;29;20112;-77
2023/06/26 06:02:05;;;;;;;16.05;14.60;;;;;;;;;;10020496;29;20047;-77
2023/06/26 06:07:01;;;;;;;15.45;13.95;;;;;;;;;;10029721;29;20142;-77
2023/06/26 06:11:58;;;;;;;22.95;14.50;;;;;;;;;;10027804;29;20047;-77
2023/06/26 06:16:54;;;;;;;15.25;13.73;;;;;;;;;;10029537;29;20040;-77
2023/06/26 06:21:51;;;;;;;15.27;14.07;;;;;;;;;;10030274;29;20072;-76
2023/06/26 06:26:47;;;;;;;15.05;13.68;;;;;;;;;;10026109;29;20103;-77
2023/06/26 06:31:43;;;;;;;15.68;14.38;;;;;;;;;;10030715;29;20102;-77
2023/06/26 06:36:40;;;;;;;15.88;14.60;;;;;;;;;;10032931;29;20585;-77
2023/06/26 06:41:36;;;;;;;14.50;13.23;;;;;;;;;;10035540;29;20044;-77
2023/06/26 06:46:33;;;;;;;16.33;14.73;;;;;;;;;;10029001;29;20143;-77
2023/06/26 06:51:29;;;;;;;16.08;14.60;;;;;;;;;;10035720;29;20048;-77
2023/06/26 06:56:25;;;;;;;15.38;14.07;;;;;;;;;;10036763;29;20074;-77
2023/06/26 07:01:21;;;;;;;15.32;14.02;;;;;;;;;;10034015;29;20095;-77
2023/06/26 07:06:18;;;;;;;14.98;13.68;;;;;;;;;;10013138;29;20443;-77
2023/06/26 07:11:14;;;;;;;15.65;14.45;;;;;;;;;;10032762;29;20638;-77
2023/06/26 07:16:11;;;;;;;15.32;14.00;;;;;;;;;;10036379;29;20047;-78
2023/06/26 07:21:08;;;;;;;14.85;13.00;;;;;;;;;;10033600;29;20048;-77
2023/06/26 07:26:04;;;;;;;15.02;13.82;;;;;;;;;;10026512;29;20064;-77
2023/06/26 07:31:01;;;;;;;14.40;12.93;;;;;;;;;;10032641;29;20040;-77
2023/06/26 07:35:57;;;;;;;15.48;14.05;;;;;;;;;;10028489;29;20674;-77
2023/06/26 07:40:53;;;;;;;14.00;12.80;;;;;;;;;;10029542;29;20927;-78
2023/06/26 07:45:51;;;;;;;14.82;13.18;;;;;;;;;;10032802;29;20051;-77
2023/06/26 07:50:47;;;;;;;14.70;13.40;;;;;;;;;;10029994;29;20043;-77
2023/06/26 07:55:43;;;;;;;15.73;14.27;;;;;;;;;;10018057;29;20114;-77
2023/06/26 08:00:40;;;;;;;15.45;13.95;;;;;;;;;;10032912;29;20052;-77
2023/06/26 08:05:37;;;;;;;14.35;13.10;;;;;;;;;;10031256;29;20072;-76
2023/06/26 08:10:34;;;;;;;15.75;14.45;;;;;;;;;;10032374;29;20052;-77
2023/06/26 08:15:31;;;;;;;14.52;13.32;;;;;;;;;;10042757;29;20043;-78
2023/06/26 08:20:28;;;;;;;15.18;13.98;;;;;;;;;;10015929;29;20051;-78
2023/06/26 08:25:25;;;;;;;15.02;13.75;;;;;;;;;;10027940;29;20051;-77
2023/06/26 08:30:22;;;;;;;14.93;13.65;;;;;;;;;;10029544;29;21173;-77
2023/06/26 08:35:18;;;;;;;15.15;13.88;;;;;;;;;;10027236;29;20056;-77
2023/06/26 08:40:17;;;;;;;15.18;13.75;;;;;;;;;;10009135;29;20070;-77
2023/06/26 08:45:13;;;;;;;14.98;13.88;;;;;;;;;;10028639;29;20051;-77
2023/06/26 08:50:09;;;;;;;15.18;13.98;;;;;;;;;;10025889;29;20055;-77
2023/06/26 08:55:09;;;;;;;14.57;13.38;;;;;;;;;;10035094;29;20047;-77
2023/06/26 09:00:06;;;;;;;14.75;13.50;;;;;;;;;;10032216;29;20044;-76
2023/06/26 09:05:03;;;;;;;15.38;13.70;;;;;;;;;;10025278;29;20047;-76
2023/06/26 09:09:59;;;;;;;13.90;12.70;;;;;;;;;;10033700;29;20103;-77
2023/06/26 09:14:56;;;;;;;15.25;13.65;;;;;;;;;;10031462;29;20073;-77
2023/06/26 09:19:52;;;;;;;16.10;14.48;;;;;;;;;;10029137;29;20477;-77
2023/06/26 09:24:49;;;;;;;16.63;14.95;;;;;;;;;;10026153;29;20044;-77
2023/06/26 09:29:47;;;;;;;16.08;14.68;;;;;;;;;;10027317;29;20067;-78
2023/06/26 09:34:46;;;;;;;17.75;15.93;;;;;;;;;;10023630;29;20044;-77
2023/06/26 09:39:42;;;;;;;17.08;15.55;;;;;;;;;;10026798;29;20202;-77
2023/06/26 09:44:43;;;;;;;17.80;16.20;;;;;;;;;;10026212;29;20135;-77
2023/06/26 09:49:43;;;;;;;16.63;15.07;;;;;;;;;;10022568;29;20059;-76
2023/06/26 09:54:40;;;;;;;18.80;17.02;;;;;;;;;;10033005;29;20520;-77
2023/06/26 09:59:37;;;;;;;21.77;17.85;;;;;;;;;;10023521;29;20661;-77
2023/06/26 10:04:34;;;;;;;17.65;15.13;;;;;;;;;;10028815;29;20516;-77
2023/06/26 10:09:31;;;;;;;18.67;16.88;;;;;;;;;;10026564;29;20052;-77
2023/06/26 10:14:33;;;;;;;20.33;18.45;;;;;;;;;;10029591;29;20054;-77
2023/06/26 10:19:30;;;;;;;19.77;17.67;;;;;;;;;;10025724;29;20052;-77
2023/06/26 10:24:29;;;;;;;20.60;18.60;;;;;;;;;;10017863;29;20056;-78
2023/06/26 10:29:25;;;;;;;21.55;18.52;;;;;;;;;;10027991;29;20457;-78
2023/06/26 10:34:21;;;;;;;16.35;14.70;;;;;;;;;;10027300;29;20095;-76
2023/06/26 10:39:18;;;;;;;15.77;14.27;;;;;;;;;;10027841;29;20036;-77
2023/06/26 10:44:16;;;;;;;14.18;12.77;;;;;;;;;;10021840;29;20103;-76
2023/06/26 10:49:13;;;;;;;14.07;12.68;;;;;;;;;;10027799;29;20052;-76
2023/06/26 10:54:13;;;;;;;13.05;11.98;;;;;;;;;;10024186;29;20049;-76
2023/06/26 10:59:22;;;;;;;13.63;12.43;;;;;;;;;;10019655;29;20044;-76
2023/06/26 11:04:18;;;;;;;13.40;12.10;;;;;;;;;;10023536;29;20052;-76
2023/06/26 11:09:15;;;;;;;15.23;13.20;;;;;;;;;;9992019;29;1051971;-75
2023/06/26 11:14:12;;;;;;;16.00;13.90;;;;;;;;;;10029458;29;20517;-75
2023/06/26 11:19:09;;;;;;;15.90;14.23;;;;;;;;;;10024437;29;20598;-77
2023/06/26 11:24:06;;;;;;;17.67;11.55;;;;;;;;;;10030506;29;20052;-77
2023/06/26 11:29:02;;;;;;;13.30;11.27;;;;;;;;;;10033932;29;20047;-77
2023/06/26 11:33:59;;;;;;;14.80;12.82;;;;;;;;;;10029127;29;20107;-76
2023/06/26 11:38:59;;;;;;;19.05;12.30;;;;;;;;;;10034774;29;20111;-75
2023/06/26 11:43:56;;;;;;;15.38;9.93;;;;;;;;;;10029170;29;20110;-75
2023/06/26 11:48:53;;;;;;;17.98;10.60;;;;;;;;;;10037899;29;20048;-77
2023/06/26 11:53:50;;;;;;;15.50;11.43;;;;;;;;;;10031142;29;20429;-77
2023/06/26 11:59:02;;;;;;;10.52;8.75;;;;;;;;;;10032519;29;20055;-74
2023/06/26 12:03:59;;;;;;;12.23;8.70;;;;;;;;;;10034514;29;20067;-75
2023/06/26 12:08:57;;;;;;;11.55;8.90;;;;;;;;;;10034073;29;20134;-77
2023/06/26 12:13:54;;;;;;;13.23;7.80;;;;;;;;;;10033807;29;20048;-76
2023/06/26 12:18:51;;;;;;;12.23;8.80;;;;;;;;;;10033785;29;20051;-77
2023/06/26 12:23:47;;;;;;;11.38;9.25;;;;;;;;;;10029475;29;20103;-74
2023/06/26 12:28:44;;;;;;;13.18;8.82;;;;;;;;;;10025827;29;20059;-77
2023/06/26 12:33:40;;;;;;;10.88;7.47;;;;;;;;;;10035590;29;20059;-77
2023/06/26 12:38:36;;;;;;;15.88;8.40;;;;;;;;;;10027215;29;20055;-77
2023/06/26 12:43:38;;;;;;;10.43;7.93;;;;;;;;;;10030987;29;20055;-77
2023/06/26 12:48:43;;;;;;;13.83;9.07;;;;;;;;;;10023021;29;20059;-75
2023/06/26 12:53:40;;;;;;;13.10;8.30;;;;;;;;;;10025975;29;20131;-78
2023/06/26 12:58:37;;;;;;;12.63;8.73;;;;;;;;;;10042643;29;20053;-75
2023/06/26 13:03:33;;;;;;;12.38;8.90;;;;;;;;;;10032220;29;20476;-77
2023/06/26 13:08:30;;;;;;;10.35;8.65;;;;;;;;;;10001333;29;20055;-77
2023/06/26 13:13:27;;;;;;;13.30;8.48;;;;;;;;;;10012589;29;20055;-76
2023/06/26 13:18:23;;;;;;;9.52;8.27;;;;;;;;;;10029530;29;20095;-77
2023/06/26 13:23:19;;;;;;;13.40;8.65;;;;;;;;;;10030282;29;20502;-77
2023/06/26 13:28:15;;;;;;;9.93;8.65;;;;;;;;;;10029071;29;20044;-77
2023/06/26 13:33:12;;;;;;;10.40;8.43;;;;;;;;;;10028016;29;20247;-77
2023/06/26 13:38:08;;;;;;;9.57;8.55;;;;;;;;;;10027887;29;20039;-77
2023/06/26 13:43:04;;;;;;;10.02;8.45;;;;;;;;;;10031533;29;20071;-77
2023/06/26 13:48:01;;;;;;;8.95;8.07;;;;;;;;;;10029874;29;20138;-77
2023/06/26 13:52:57;;;;;;;9.40;8.27;;;;;;;;;;10026728;29;20050;-77
2023/06/26 13:57:55;;;;;;;10.80;7.60;;;;;;;;;;10008819;29;20076;-77
2023/06/26 14:02:51;;;;;;;8.90;8.00;;;;;;;;;;10030440;29;20040;-77
2023/06/26 14:07:48;;;;;;;10.80;7.68;;;;;;;;;;10020993;29;20505;-77
2023/06/26 14:12:44;;;;;;;9.95;7.85;;;;;;;;;;10030249;29;20066;-77
2023/06/26 14:17:41;;;;;;;8.90;7.20;;;;;;;;;;10029331;29;20093;-77
2023/06/26 14:22:38;;;;;;;9.63;7.78;;;;;;;;;;10028909;29;20048;-77
2023/06/26 14:27:34;;;;;;;9.32;7.80;;;;;;;;;;10012458;29;20105;-77
2023/06/26 14:32:30;;;;;;;8.00;7.20;;;;;;;;;;10007549;29;20052;-77
2023/06/26 14:37:28;;;;;;;9.68;6.75;;;;;;;;;;10028770;29;20552;-77
2023/06/26 14:42:25;;;;;;;8.73;7.10;;;;;;;;;;10031822;29;20040;-77
2023/06/26 14:47:22;;;;;;;9.98;6.82;;;;;;;;;;10031634;29;20130;-77
2023/06/26 14:52:18;;;;;;;7.40;6.80;;;;;;;;;;10027074;29;20048;-77
2023/06/26 14:57:14;;;;;;;7.20;6.47;;;;;;;;;;10026869;29;20075;-76
2023/06/26 15:02:11;;;;;;;7.15;6.45;;;;;;;;;;10034682;29;20080;-77
2023/06/26 15:07:07;;;;;;;7.10;6.47;;;;;;;;;;10031650;29;20069;-77
2023/06/26 15:12:04;;;;;;;8.05;7.30;;;;;;;;;;10046058;29;20102;-75
2023/06/26 15:17:00;;;;;;;7.00;6.27;;;;;;;;;;10013500;29;20048;-77
2023/06/26 15:21:57;;;;;;;9.57;6.72;;;;;;;;;;9998363;29;20051;-76
2023/06/26 15:26:53;;;;;;;9.38;6.38;;;;;;;;;;10028180;29;20075;-76
2023/06/26 15:31:49;;;;;;;6.82;6.10;;;;;;;;;;10019447;29;20104;-76
2023/06/26 15:36:46;;;;;;;9.35;6.80;;;;;;;;;;10032244;29;20075;-77
2023/06/26 15:41:44;;;;;;;6.93;5.90;;;;;;;;;;10034943;29;20107;-76
2023/06/26 15:46:40;;;;;;;7.03;6.32;;;;;;;;;;10033506;29;20048;-76
2023/06/26 15:51:37;;;;;;;6.65;6.15;;;;;;;;;;10034076;29;20053;-77
2023/06/26 15:56:34;;;;;;;9.70;7.40;;;;;;;;;;10024712;29;20048;-77
2023/06/26 16:01:30;;;;;;;7.78;6.97;;;;;;;;;;10031797;29;20386;-77
2023/06/26 16:06:27;;;;;;;8.38;6.85;;;;;;;;;;10029792;28;20606;-77
2023/06/26 16:11:23;;;;;;;11.25;6.97;;;;;;;;;;10014383;29;20040;-76
2023/06/26 16:16:19;;;;;;;7.85;7.05;;;;;;;;;;9978385;29;20052;-75
2023/06/26 16:21:16;;;;;;;13.52;8.32;;;;;;;;;;9990503;29;20090;-77
2023/06/26 16:26:12;;;;;;;9.55;7.60;;;;;;;;;;10034591;29;20529;-76
2023/06/26 16:31:09;;;;;;;9.57;6.40;;;;;;;;;;10035339;29;20067;-76
2023/06/26 16:36:05;;;;;;;12.27;7.68;;;;;;;;;;10030004;29;20070;-76
2023/06/26 16:41:01;;;;;;;10.63;7.30;;;;;;;;;;10031920;29;20763;-76
2023/06/26 16:45:58;;;;;;;7.47;6.47;;;;;;;;;;10014196;29;20043;-76
2023/06/26 16:50:54;;;;;;;9.23;6.90;;;;;;;;;;10026234;29;20044;-77
2023/06/26 16:55:50;;;;;;;7.38;6.32;;;;;;;;;;10026321;29;20058;-76
2023/06/26 17:00:47;;;;;;;8.32;6.65;;;;;;;;;;10014912;29;20119;-76
2023/06/26 17:05:43;;;;;;;9.65;6.90;;;;;;;;;;10030945;29;20052;-75
2023/06/26 17:10:40;;;;;;;8.02;6.28;;;;;;;;;;10024835;29;20522;-75
2023/06/26 17:15:37;;;;;;;8.00;6.78;;;;;;;;;;10009667;29;20058;-75
2023/06/26 17:20:33;;;;;;;9.85;7.30;;;;;;;;;;10014760;29;20052;-76
2023/06/26 17:25:33;;;;;;;8.63;6.72;;;;;;;;;;10024250;29;20132;-76
2023/06/26 17:30:31;;;;;;;9.48;7.05;;;;;;;;;;10011715;29;20514;-73
2023/06/26 17:35:28;;;;;;;7.32;6.15;;;;;;;;;;10024285;29;20494;-75
2023/06/26 17:40:25;;;;;;;9.02;6.45;;;;;;;;;;10005546;29;20682;-76
2023/06/26 17:45:21;;;;;;;11.68;7.28;;;;;;;;;;10029413;29;20106;-75
2023/06/26 17:50:18;;;;;;;8.90;7.00;;;;;;;;;;10029053;29;20643;-75
2023/06/26 17:55:14;;;;;;;8.85;6.72;;;;;;;;;;10025889;29;20052;-75
2023/06/26 18:00:11;;;;;;;7.07;6.38;;;;;;;;;;10016819;29;20091;-74
2023/06/26 18:05:07;;;;;;;10.15;5.97;;;;;;;;;;10025459;29;20115;-75
2023/06/26 18:10:04;;;;;;;8.85;6.45;;;;;;;;;;10015433;29;20054;-75
2023/06/26 18:15:02;;;;;;;10.05;6.07;;;;;;;;;;10027566;29;20048;-75
2023/06/26 18:19:59;;;;;;;10.80;7.03;;;;;;;;;;10018823;29;20560;-75
2023/06/26 18:24:55;;;;;;;10.07;6.57;;;;;;;;;;10026050;29;20605;-75
2023/06/26 18:29:52;;;;;;;8.70;6.35;;;;;;;;;;10018166;29;20068;-75
2023/06/26 18:34:49;;;;;;;9.02;6.85;;;;;;;;;;10023285;29;20102;-75
2023/06/26 18:39:45;;;;;;;11.05;6.82;;;;;;;;;;10023773;29;20047;-75
2023/06/26 18:44:42;;;;;;;15.07;7.38;;;;;;;;;;10025329;29;20044;-74
2023/06/26 18:49:41;;;;;;;9.70;6.00;;;;;;;;;;10028522;29;20071;-74
2023/06/26 18:54:37;;;;;;;10.18;6.85;;;;;;;;;;10020536;29;20054;-74
2023/06/26 18:59:34;;;;;;;8.25;5.97;;;;;;;;;;10001547;29;20078;-75
2023/06/26 19:04:34;;;;;;;9.02;6.43;;;;;;;;;;10022426;29;20059;-76
2023/06/26 19:09:31;;;;;;;11.25;6.10;;;;;;;;;;10021104;29;20134;-76
2023/06/26 19:14:27;;;;;;;11.80;6.50;;;;;;;;;;10022973;29;20521;-76
2023/06/26 19:19:23;;;;;;;10.48;5.93;;;;;;;;;;10024058;29;20052;-76
2023/06/26 19:24:19;;;;;;;11.65;6.93;;;;;;;;;;10028720;29;20044;-76
2023/06/26 19:29:16;;;;;;;12.75;8.18;;;;;;;;;;10026900;29;20091;-75
2023/06/26 19:34:13;;;;;;;11.63;7.72;;;;;;;;;;10027002;29;20043;-75
2023/06/26 19:39:10;;;;;;;15.05;7.43;;;;;;;;;;9980320;29;20036;-74
2023/06/26 19:44:06;;;;;;;12.00;6.80;;;;;;;;;;9987914;29;20128;-75
2023/06/26 19:49:03;;;;;;;11.85;7.72;;;;;;;;;;9990764;29;20103;-69
2023/06/26 19:53:59;;;;;;;14.07;7.75;;;;;;;;;;10023255;29;20649;-67
2023/06/26 19:58:56;;;;;;;9.88;6.55;;;;;;;;;;10018201;29;20095;-71
2023/06/26 20:03:52;;;;;;;9.43;6.35;;;;;;;;;;10028192;29;20047;-72
2023/06/26 20:08:49;;;;;;;15.55;7.60;;;;;;;;;;10014406;29;20044;-72
2023/06/26 20:13:45;;;;;;;12.95;7.93;;;;;;;;;;10020544;29;20081;-73
2023/06/26 20:18:41;;;;;;;12.35;6.80;;;;;;;;;;10023006;29;20054;-72
2023/06/26 20:23:38;;;;;;;12.00;6.80;;;;;;;;;;10026695;29;20079;-68
2023/06/26 20:28:34;;;;;;;11.48;7.40;;;;;;;;;;10030261;29;20052;-67
2023/06/26 20:33:30;;;;;;;11.55;6.78;;;;;;;;;;10028142;29;20051;-69
2023/06/26 20:38:27;;;;;;;17.73;7.15;;;;;;;;;;10024240;29;20052;-69
2023/06/26 20:43:23;;;;;;;12.25;6.72;;;;;;;;;;10030664;29;20044;-69
2023/06/26 20:48:19;;;;;;;9.18;6.53;;;;;;;;;;10033642;29;20106;-69
2023/06/26 20:53:16;;;;;;;11.32;7.05;;;;;;;;;;10004753;29;20565;-70
2023/06/26 20:58:12;;;;;;;16.77;8.13;;;;;;;;;;10026179;29;20048;-68
2023/06/26 21:03:09;;;;;;;10.18;6.40;;;;;;;;;;10029860;29;20536;-69
2023/06/26 21:08:05;;;;;;;12.68;7.07;;;;;;;;;;10026738;29;20518;-70
2023/06/26 21:13:02;;;;;;;9.52;7.22;;;;;;;;;;10031064;29;20052;-68
2023/06/26 21:17:58;;;;;;;12.50;7.97;;;;;;;;;;10032621;29;20090;-68
2023/06/26 21:22:55;;;;;;;14.32;6.75;;;;;;;;;;10028111;29;20040;-68
2023/06/26 21:27:51;;;;;;;12.85;7.18;;;;;;;;;;10032266;29;20047;-69
2023/06/26 21:32:47;;;;;;;18.27;7.60;;;;;;;;;;10024664;29;20510;-73
2023/06/26 21:37:44;;;;;;;15.55;7.55;;;;;;;;;;10026686;29;20594;-73
2023/06/26 21:42:40;;;;;;;12.38;6.72;;;;;;;;;;10030709;29;20047;-73
2023/06/26 21:47:36;;;;;;;13.93;8.07;;;;;;;;;;10031067;29;20422;-69
2023/06/26 21:52:33;;;;;;;13.50;7.18;;;;;;;;;;10029754;29;20578;-69
2023/06/26 21:57:29;;;;;;;15.23;8.23;;;;;;;;;;10007682;29;20067;-68
2023/06/26 22:02:25;;;;;;;10.75;6.57;;;;;;;;;;10007791;29;20044;-70
2023/06/26 22:07:22;;;;;;;15.48;6.80;;;;;;;;;;10025139;29;20059;-70
2023/06/26 22:12:18;;;;;;;15.65;7.22;;;;;;;;;;10013840;29;20047;-70
2023/06/26 22:17:14;;;;;;;11.82;6.53;;;;;;;;;;10027911;29;20743;-70
2023/06/26 22:22:11;;;;;;;15.18;7.63;;;;;;;;;;10024636;29;20093;-69
2023/06/26 22:27:07;;;;;;;14.93;6.95;;;;;;;;;;10027924;29;20479;-69
2023/06/26 22:32:04;;;;;;;15.15;6.70;;;;;;;;;;10026624;29;20056;-68
2023/06/26 22:37:00;;;;;;;13.70;7.28;;;;;;;;;;10024991;29;20533;-69
2023/06/26 22:41:56;;;;;;;10.05;6.93;;;;;;;;;;10024869;29;20051;-70
2023/06/26 22:46:53;;;;;;;16.88;7.20;;;;;;;;;;10026822;29;20054;-70
2023/06/26 22:51:50;;;;;;;12.50;7.07;;;;;;;;;;10025781;29;20048;-70
2023/06/26 22:56:46;;;;;;;17.42;7.07;;;;;;;;;;10025825;29;20051;-70
2023/06/26 23:01:51;;;;;;;9.95;6.78;;;;;;;;;;10021485;29;20541;-70
2023/06/26 23:06:48;;;;;;;14.73;7.28;;;;;;;;;;10025745;29;20067;-70
2023/06/26 23:11:44;;;;;;;14.95;6.75;;;;;;;;;;10009980;29;20044;-71
2023/06/26 23:16:41;;;;;;;12.05;6.32;;;;;;;;;;10029424;29;20052;-68
2023/06/26 23:21:37;;;;;;;17.80;7.13;;;;;;;;;;10019462;29;20052;-68
2023/06/26 23:26:37;;;;;;;10.98;6.88;;;;;;;;;;10031703;29;20106;-69
2023/06/26 23:31:33;;;;;;;11.95;6.85;;;;;;;;;;10035269;29;20051;-71
2023/06/26 23:36:30;;;;;;;11.73;7.43;;;;;;;;;;10031355;29;20154;-68
2023/06/26 23:41:26;;;;;;;14.65;7.70;;;;;;;;;;10036173;29;20647;-69
2023/06/26 23:46:24;;;;;;;12.82;7.32;;;;;;;;;;10033394;29;20486;-71
2023/06/26 23:51:20;;;;;;;15.73;6.63;;;;;;;;;;10032413;29;20040;-69
2023/06/26 23:56:17;;;;;;;13.82;6.80;;;;;;;;;;10029715;29;20122;-69
